Time;durP1;ratioP1;P1;durP2;ratioP2;P2;SDS_P1;SDS_P2;PMS_P1;PMS_P2;Temp;Humidity;BMP_temperature;BMP_pressure;BME280_temperature;BME280_humidity;BME280_pressure;Samples;Min_cycle;Max_cycle;Signal;HPM_P1;HPM_P2
2023/02/25 00:00:19;;;;;;;13.60;8.05;;;;;;;10.43;95.84;97844.19;5111792;28;20020;-45
2023/02/25 00:02:50;;;;;;;15.48;10.07;;;;;;;10.66;96.16;97840.88;5086245;28;20055;-45
2023/02/25 00:05:19;;;;;;;15.23;8.90;;;;;;;10.77;96.15;97843.53;5073220;28;20028;-45
2023/02/25 00:07:45;;;;;;;24.15;8.73;;;;;;;10.75;95.09;97842.16;5091417;28;20024;-46
2023/02/25 00:10:15;;;;;;;15.75;8.75;;;;;;;10.79;95.42;97851.19;5091344;28;20035;-46
2023/02/25 00:12:52;;;;;;;20.80;7.88;;;;;;;10.90;96.06;97850.44;5091586;28;20044;-46
2023/02/25 00:15:18;;;;;;;21.33;8.27;;;;;;;10.91;95.12;97852.03;5072926;28;20032;-46
2023/02/25 00:17:50;;;;;;;18.38;8.25;;;;;;;10.86;94.79;97856.34;5091230;28;20028;-46
2023/02/25 00:20:21;;;;;;;38.90;30.35;;;;;;;10.90;94.96;97849.63;5075311;28;20024;-45
2023/02/25 00:22:48;;;;;;;18.08;9.10;;;;;;;10.98;95.05;97846.69;5076842;28;20132;-46
2023/02/25 00:25:15;;;;;;;13.45;7.40;;;;;;;10.84;93.98;97850.53;5094800;28;20016;-45
2023/02/25 00:28:05;;;;;;;15.20;8.73;;;;;;;10.79;94.51;97848.56;5095175;28;20494;-45
2023/02/25 00:30:32;;;;;;;16.55;9.38;;;;;;;10.71;94.96;97843.63;5076617;28;20028;-45
2023/02/25 00:33:17;;;;;;;14.35;10.38;;;;;;;10.67;95.61;97838.03;5076663;28;20024;-45
2023/02/25 00:35:44;;;;;;;15.93;8.30;;;;;;;10.76;96.68;97838.50;5094752;28;20498;-45
2023/02/25 00:38:17;;;;;;;13.43;8.50;;;;;;;10.58;95.43;97829.66;5060170;28;20032;-45
2023/02/25 00:40:43;;;;;;;20.02;9.15;;;;;;;10.41;95.70;97838.38;5093368;28;20566;-45
2023/02/25 00:43:13;;;;;;;19.30;8.68;;;;;;;10.43;96.32;97837.13;5059811;28;20519;-47
2023/02/25 00:45:39;;;;;;;23.48;8.40;;;;;;;10.37;95.43;97841.41;5076363;28;20512;-45
2023/02/25 00:48:10;;;;;;;22.23;12.57;;;;;;;10.27;94.86;97837.69;5076301;28;20062;-45
2023/02/25 00:50:43;;;;;;;18.30;10.35;;;;;;;10.46;96.49;97835.88;5094417;28;20493;-46
2023/02/25 00:53:14;;;;;;;12.90;8.07;;;;;;;10.55;96.71;97831.94;5094686;28;20443;-45
2023/02/25 00:55:41;;;;;;;16.15;8.80;;;;;;;10.62;97.26;97839.72;5094334;28;20050;-46
2023/02/25 00:58:12;;;;;;;19.60;8.10;;;;;;;10.65;97.48;97840.06;5094310;28;20031;-47
2023/02/25 01:00:43;;;;;;;23.50;8.30;;;;;;;10.70;97.24;97836.78;5076021;28;20024;-46
2023/02/25 01:03:14;;;;;;;102.70;93.75;;;;;;;10.73;96.95;97833.72;5104640;28;20386;-46
2023/02/25 01:05:41;;;;;;;19.08;13.13;;;;;;;10.88;97.71;97823.59;5114548;28;20062;-45
2023/02/25 01:08:09;;;;;;;14.25;8.30;;;;;;;11.09;98.01;97829.41;5096201;28;20035;-45
2023/02/25 01:10:36;;;;;;;19.58;7.68;;;;;;;11.13;97.28;97826.09;5114479;28;20019;-45
2023/02/25 01:13:03;;;;;;;21.30;9.25;;;;;;;11.18;97.71;97833.28;5114420;28;20027;-45
2023/02/25 01:15:30;;;;;;;29.42;8.90;;;;;;;11.32;98.09;97833.88;5095973;28;20397;-46
2023/02/25 01:17:57;;;;;;;13.82;8.32;;;;;;;11.43;97.91;97834.91;5114330;28;20072;-45
2023/02/25 01:20:24;;;;;;;14.88;8.48;;;;;;;11.41;97.47;97840.41;5114238;28;20135;-46
2023/02/25 01:22:51;;;;;;;22.83;9.98;;;;;;;11.43;97.44;97834.91;5114226;28;20075;-45
2023/02/25 01:25:18;;;;;;;18.85;9.13;;;;;;;11.53;97.71;97843.88;5114059;28;20024;-46
2023/02/25 01:27:45;;;;;;;18.02;9.20;;;;;;;11.64;97.93;97844.09;5112872;28;20019;-46
2023/02/25 01:30:12;;;;;;;113.47;103.93;;;;;;;11.64;97.90;97839.63;5112332;28;20454;-46
2023/02/25 01:32:39;;;;;;;31.73;28.48;;;;;;;11.66;97.78;97836.78;5113163;28;20023;-46
2023/02/25 01:35:07;;;;;;;16.40;11.27;;;;;;;11.51;96.83;97835.41;5113908;28;20032;-46
2023/02/25 01:37:33;;;;;;;27.30;11.95;;;;;;;11.63;98.46;97834.59;5095519;28;20114;-45
2023/02/25 01:40:00;;;;;;;16.90;9.38;;;;;;;11.80;99.10;97838.94;5095564;28;20039;-45
2023/02/25 01:42:27;;;;;;;18.48;10.60;;;;;;;11.98;99.35;97837.25;5113786;28;20051;-45
2023/02/25 01:45:18;;;;;;;20.90;9.80;;;;;;;12.04;98.74;97827.66;5113694;28;20516;-44
2023/02/25 01:47:56;;;;;;;14.68;7.28;;;;;;;12.07;97.86;97821.91;5113635;28;20035;-44
2023/02/25 01:51:16;;;;;;;12.70;5.90;;;;;;;12.01;96.08;97821.00;5112413;28;20068;-45
2023/02/25 01:53:46;;;;;;;10.38;6.03;;;;;;;11.76;95.02;97814.16;5113501;28;20050;-46
2023/02/25 01:56:19;;;;;;;10.68;5.30;;;;;;;11.58;94.46;97820.31;5095378;28;20023;-46
2023/02/25 01:58:47;;;;;;;12.60;7.53;;;;;;;11.47;94.94;97815.03;5113494;28;20378;-45
2023/02/25 02:01:19;;;;;;;8.52;4.80;;;;;;;11.34;95.25;97824.75;5112135;28;20035;-45
2023/02/25 02:03:47;;;;;;;9.45;4.43;;;;;;;11.36;96.33;97811.38;5112878;28;20051;-46
2023/02/25 02:06:36;;;;;;;12.60;9.25;;;;;;;11.33;96.35;97817.13;5112101;28;20181;-45
2023/02/25 02:09:06;;;;;;;5.13;3.40;;;;;;;11.39;97.04;97822.25;5113429;28;20508;-45
2023/02/25 02:11:32;;;;;;;5.20;3.80;;;;;;;11.33;96.33;97815.28;5113181;28;20389;-45
2023/02/25 02:14:03;;;;;;;8.60;5.82;;;;;;;11.31;96.20;97821.78;5113224;28;20023;-45
2023/02/25 02:16:59;;;;;;;;;;;;;;;;;;;;;
2023/02/25 02:19:49;;;;;;;6.40;4.72;;;;;;;11.16;95.16;97823.00;5110886;28;20085;-44
2023/02/25 02:22:39;;;;;;;8.75;4.47;;;;;;;10.99;93.11;97820.22;5113033;28;20061;-44
2023/02/25 02:25:21;;;;;;;8.85;5.72;;;;;;;10.83;92.96;97820.06;5112960;28;20034;-44
2023/02/25 02:28:04;;;;;;;5.97;2.40;;;;;;;10.84;92.86;97817.19;5111717;28;20042;-44
2023/02/25 02:30:30;;;;;;;4.93;2.55;;;;;;;10.87;90.97;97824.66;5112875;28;20034;-44
2023/02/25 02:33:18;;;;;;;9.15;3.97;;;;;;;10.80;90.92;97823.91;5112907;28;20393;-45
2023/02/25 02:36:26;;;;;;;3.42;2.00;;;;;;;10.81;90.85;97825.53;5112889;28;20032;-47
2023/02/25 02:42:48;;;;;;;3.13;1.70;;;;;;;10.81;90.15;97824.75;5112289;28;20042;-45
2023/02/25 02:46:00;;;;;;;9.02;2.20;;;;;;;10.75;89.28;97823.81;5112814;28;20027;-47
2023/02/25 02:49:13;;;;;;;2.67;1.52;;;;;;;10.87;87.93;97821.22;5112666;28;20032;-45
2023/02/25 02:52:17;;;;;;;4.80;1.50;;;;;;;10.85;85.82;97810.94;5112489;28;20110;-47
2023/02/25 02:55:21;;;;;;;6.78;3.60;;;;;;;10.87;87.36;97808.09;5112475;28;20534;-47
2023/02/25 02:58:47;;;;;;;3.40;1.80;;;;;;;10.91;88.27;97806.63;5094202;28;20028;-45
2023/02/25 03:02:14;;;;;;;9.10;7.95;;;;;;;10.86;86.35;97815.16;5055971;28;20043;-47
2023/02/25 03:04:44;;;;;;;9.95;7.50;;;;;;;10.89;87.53;97811.31;5091201;28;20028;-45
2023/02/25 03:07:13;;;;;;;14.45;7.60;;;;;;;10.97;84.57;97813.59;5091926;28;20044;-46
2023/02/25 03:10:00;;;;;;;3.72;1.60;;;;;;;11.02;83.95;97818.97;5091880;28;20028;-45
2023/02/25 03:12:27;;;;;;;5.72;1.92;;;;;;;11.07;84.55;97807.81;5073928;28;20028;-45
2023/02/25 03:14:55;;;;;;;1.88;1.00;;;;;;;11.12;80.60;97797.41;5092088;28;20028;-45
2023/02/25 03:17:28;;;;;;;7.05;1.60;;;;;;;11.11;79.92;97799.25;5091900;28;20020;-45
2023/02/25 03:20:24;;;;;;;2.55;1.60;;;;;;;11.16;80.81;97795.94;5091901;28;20070;-45
2023/02/25 03:23:00;;;;;;;3.75;1.42;;;;;;;11.19;79.66;97779.75;5073842;28;20032;-46
2023/02/25 03:25:58;;;;;;;5.70;1.58;;;;;;;11.19;80.13;97785.00;5091752;28;20032;-46
2023/02/25 03:28:34;;;;;;;2.10;1.10;;;;;;;11.21;77.98;97777.69;5091941;28;20032;-47
2023/02/25 03:31:41;;;;;;;7.25;1.60;;;;;;;11.19;76.91;97777.13;5091616;28;20051;-46
2023/02/25 03:34:32;;;;;;;;;;;;;;;11.30;79.02;97773.69;5092088;28;20032;-46
2023/02/25 03:37:38;;;;;;;6.10;3.05;;;;;;;11.44;78.07;97776.09;5091562;28;19915;-47
2023/02/25 03:40:22;;;;;;;3.38;1.90;;;;;;;11.32;77.59;97776.09;5073509;28;20032;-47
2023/02/25 03:43:24;;;;;;;4.50;1.40;;;;;;;11.31;77.81;97767.41;5073450;28;20058;-47
2023/02/25 03:45:55;;;;;;;4.38;1.30;;;;;;;11.33;78.68;97754.84;5067007;28;20044;-47
2023/02/25 03:48:57;;;;;;;5.00;1.23;;;;;;;11.47;77.20;97758.06;5073422;28;20035;-47
2023/02/25 03:51:38;;;;;;;4.20;1.30;;;;;;;11.51;78.11;97761.00;5091383;28;20498;-47
2023/02/25 03:54:06;;;;;;;2.65;1.42;;;;;;;11.60;77.94;97747.31;5092056;28;20056;-45
2023/02/25 03:56:45;;;;;;;4.85;1.40;;;;;;;11.76;77.66;97743.16;5095424;28;20048;-46
2023/02/25 03:59:12;;;;;;;3.22;1.00;;;;;;;11.86;77.32;97747.84;5095445;28;20035;-46
2023/02/25 04:01:43;;;;;;;3.28;1.40;;;;;;;11.93;75.50;97753.00;5095435;28;20048;-46
2023/02/25 04:04:10;;;;;;;3.25;1.33;;;;;;;11.93;75.56;97758.25;5111243;28;20483;-46
2023/02/25 04:06:37;;;;;;;2.67;1.30;;;;;;;11.90;74.73;97753.47;5114463;28;20027;-46
2023/02/25 04:09:05;;;;;;;3.78;1.67;;;;;;;11.89;74.83;97752.69;5115601;28;20027;-46
2023/02/25 04:11:32;;;;;;;2.75;1.00;;;;;;;11.96;75.61;97755.19;5097284;28;20031;-46
2023/02/25 04:13:59;;;;;;;3.72;1.30;;;;;;;11.89;74.76;97751.88;5114275;28;20028;-46
2023/02/25 04:16:26;;;;;;;4.82;1.60;;;;;;;11.76;73.06;97761.56;5115431;28;20107;-47
2023/02/25 04:18:53;;;;;;;1.42;1.00;;;;;;;11.67;74.42;97760.34;5115553;28;20481;-46
2023/02/25 04:21:32;;;;;;;4.45;1.77;;;;;;;11.55;73.85;97760.34;5115423;28;20027;-46
2023/02/25 04:23:58;;;;;;;3.83;1.40;;;;;;;11.43;74.19;97754.28;5115299;28;20024;-46
2023/02/25 04:26:26;;;;;;;8.57;1.95;;;;;;;11.47;74.90;97754.63;5115308;28;20038;-46
2023/02/25 04:28:53;;;;;;;8.52;2.03;;;;;;;11.58;75.41;97751.19;5115367;28;20024;-46
2023/02/25 04:31:20;;;;;;;7.13;2.08;;;;;;;11.57;73.12;97750.41;5115373;28;20393;-46
2023/02/25 04:33:48;;;;;;;1.83;1.10;;;;;;;11.53;71.47;97751.91;5113956;28;20135;-46
2023/02/25 04:36:27;;;;;;;4.15;1.50;;;;;;;11.40;72.24;97747.66;5115482;28;20110;-46
2023/02/25 04:38:54;;;;;;;7.47;3.25;;;;;;;11.27;73.70;97750.53;5115150;28;20452;-46
2023/02/25 04:41:22;;;;;;;6.22;4.72;;;;;;;11.30;72.22;97754.50;5114993;28;20059;-46
2023/02/25 04:43:49;;;;;;;6.13;2.05;;;;;;;11.38;70.65;97754.16;5115248;28;20055;-46
2023/02/25 04:46:16;;;;;;;3.53;1.40;;;;;;;11.56;71.07;97750.63;5113704;28;20378;-46
2023/02/25 04:48:43;;;;;;;8.48;3.63;;;;;;;11.64;70.44;97754.75;5114937;28;20027;-46
2023/02/25 04:51:10;;;;;;;6.53;1.40;;;;;;;11.71;70.42;97740.44;5114851;28;20027;-45
2023/02/25 04:53:38;;;;;;;7.22;1.73;;;;;;;11.82;70.03;97743.28;5113530;28;20024;-46
2023/02/25 04:56:07;;;;;;;3.88;1.42;;;;;;;11.76;67.62;97740.53;5114780;28;20095;-46
2023/02/25 04:58:36;;;;;;;20.80;9.10;;;;;;;11.53;70.18;97746.63;5114681;28;20092;-46
2023/02/25 05:01:05;;;;;;;6.05;2.10;;;;;;;11.49;69.12;97753.38;5114710;28;20028;-46
2023/02/25 05:03:32;;;;;;;4.60;4.20;;;;;;;11.30;69.01;97749.25;5114309;28;20043;-46
2023/02/25 05:06:00;;;;;;;21.27;19.17;;;;;;;11.14;70.44;97738.38;5114205;28;20022;-46
2023/02/25 05:08:27;;;;;;;13.80;8.95;;;;;;;11.18;71.13;97746.63;5096230;28;20032;-46
2023/02/25 05:10:59;;;;;;;6.88;3.25;;;;;;;11.23;71.33;97738.88;5114375;28;20020;-47
2023/02/25 05:13:30;;;;;;;5.60;2.00;;;;;;;11.24;70.60;97745.72;5113382;28;20410;-46
2023/02/25 05:16:35;;;;;;;6.57;1.35;;;;;;;11.24;71.93;97742.28;5114269;28;20054;-48
2023/02/25 05:19:04;;;;;;;3.85;1.88;;;;;;;11.28;71.93;97738.19;5096040;28;20036;-47
2023/02/25 05:21:32;;;;;;;6.22;5.35;;;;;;;11.28;71.00;97738.97;5113153;28;20048;-46
2023/02/25 05:23:59;;;;;;;8.65;4.00;;;;;;;11.23;70.71;97741.50;5114173;28;20073;-46
2023/02/25 05:26:26;;;;;;;7.25;1.88;;;;;;;11.32;69.77;97734.06;5114208;28;20026;-46
2023/02/25 05:28:56;;;;;;;2.80;1.40;;;;;;;11.41;71.18;97735.34;5096228;28;20578;-46
2023/02/25 05:31:23;;;;;;;9.43;2.53;;;;;;;11.46;71.58;97722.28;5113093;28;20044;-46
2023/02/25 05:33:51;;;;;;;4.03;1.67;;;;;;;11.46;69.82;97735.44;5114067;28;20027;-46
2023/02/25 05:36:18;;;;;;;3.10;1.55;;;;;;;11.17;70.71;97734.53;5114023;28;20091;-46
2023/02/25 05:38:46;;;;;;;4.32;1.30;;;;;;;11.11;70.86;97733.59;5113959;28;20035;-46
2023/02/25 05:41:14;;;;;;;4.03;1.80;;;;;;;11.25;70.89;97738.63;5112591;28;20116;-46
2023/02/25 05:43:44;;;;;;;3.38;1.90;;;;;;;11.43;71.38;97732.47;5113721;28;20028;-46
2023/02/25 05:46:16;;;;;;;6.00;1.80;;;;;;;11.50;70.45;97735.78;5113630;28;20027;-48
2023/02/25 05:48:45;;;;;;;5.18;1.73;;;;;;;11.57;70.21;97734.63;5113695;28;20046;-47
2023/02/25 05:51:35;;;;;;;4.25;1.73;;;;;;;11.61;70.90;97737.63;5113583;28;20034;-46
2023/02/25 05:54:19;;;;;;;6.75;3.08;;;;;;;11.63;69.77;97740.00;5113569;28;20042;-48
2023/02/25 05:56:53;;;;;;;8.63;2.28;;;;;;;11.56;69.86;97740.91;5113525;28;20083;-47
2023/02/25 05:59:19;;;;;;;7.90;1.75;;;;;;;11.48;69.14;97743.88;5113507;28;20020;-46
2023/02/25 06:01:49;;;;;;;16.77;2.67;;;;;;;11.38;70.29;97741.03;5112171;28;20034;-47
2023/02/25 06:04:23;;;;;;;11.95;2.17;;;;;;;11.55;70.31;97751.63;5113160;28;20031;-46
2023/02/25 06:06:50;;;;;;;5.53;1.58;;;;;;;11.64;69.05;97749.47;5113363;28;20031;-46
2023/02/25 06:09:33;;;;;;;6.35;3.38;;;;;;;11.60;68.68;97743.88;5113315;28;20027;-46
2023/02/25 06:12:03;;;;;;;9.10;2.30;;;;;;;11.43;67.94;97742.97;5113205;28;20370;-47
2023/02/25 06:14:33;;;;;;;3.85;1.88;;;;;;;11.46;68.18;97737.28;5113190;28;20094;-47
2023/02/25 06:17:03;;;;;;;9.02;2.00;;;;;;;11.65;67.75;97735.28;5112429;28;20035;-47
2023/02/25 06:19:35;;;;;;;12.27;6.75;;;;;;;11.83;66.48;97731.72;5113224;28;20027;-46
2023/02/25 06:22:13;;;;;;;7.95;7.22;;;;;;;11.91;64.13;97731.41;5113042;28;20440;-47
2023/02/25 06:24:40;;;;;;;11.02;4.70;;;;;;;11.89;65.57;97733.47;5113021;28;20024;-46
2023/02/25 06:27:06;;;;;;;4.07;1.80;;;;;;;11.81;63.80;97729.31;5113034;28;20023;-46
2023/02/25 06:29:40;;;;;;;8.38;2.53;;;;;;;11.77;63.60;97721.13;5112921;28;20015;-46
2023/02/25 06:32:10;;;;;;;7.13;3.50;;;;;;;11.79;64.40;97732.22;5112825;28;20027;-46
2023/02/25 06:34:38;;;;;;;9.65;3.15;;;;;;;11.96;63.65;97723.63;5112798;28;20031;-46
2023/02/25 06:37:06;;;;;;;11.63;6.30;;;;;;;12.08;63.03;97721.75;5112833;28;20028;-46
2023/02/25 06:39:33;;;;;;;10.32;7.28;;;;;;;12.06;62.00;97717.78;5112826;28;20027;-46
2023/02/25 06:42:01;;;;;;;13.10;4.28;;;;;;;12.08;62.26;97720.97;5111392;28;20020;-46
2023/02/25 06:44:29;;;;;;;9.30;6.25;;;;;;;12.16;62.26;97716.13;5112586;28;20026;-46
2023/02/25 06:46:56;;;;;;;4.20;2.08;;;;;;;12.07;61.39;97717.53;5112656;28;20156;-46
2023/02/25 06:49:23;;;;;;;5.43;2.30;;;;;;;11.99;61.97;97715.25;5112751;28;20030;-46
2023/02/25 06:51:50;;;;;;;6.20;2.00;;;;;;;11.99;62.19;97718.72;5112562;28;20066;-46
2023/02/25 06:54:20;;;;;;;3.35;2.47;;;;;;;11.99;61.40;97715.25;5112542;28;20026;-46
2023/02/25 06:56:52;;;;;;;5.03;2.17;;;;;;;11.93;60.75;97719.63;5112507;28;20026;-46
2023/02/25 06:59:19;;;;;;;7.03;1.85;;;;;;;11.86;61.17;97720.78;5112454;28;20024;-46
2023/02/25 07:01:47;;;;;;;5.75;2.25;;;;;;;11.78;61.39;97719.28;5112731;28;20027;-46
2023/02/25 07:04:18;;;;;;;18.65;16.67;;;;;;;11.66;60.96;97729.03;5112090;28;20055;-46
2023/02/25 07:06:47;;;;;;;7.63;5.88;;;;;;;11.61;62.33;97724.47;5112319;28;20031;-46
2023/02/25 07:09:15;;;;;;;4.13;3.70;;;;;;;11.68;61.46;97717.25;5112400;28;20178;-46
2023/02/25 07:11:44;;;;;;;4.22;2.60;;;;;;;11.62;60.80;97712.91;5112350;28;20066;-46
2023/02/25 07:14:14;;;;;;;13.63;12.20;;;;;;;11.63;60.53;97721.59;5112166;28;20103;-46
2023/02/25 07:16:46;;;;;;;20.08;17.98;;;;;;;11.50;60.32;97730.53;5112224;28;20443;-46
2023/02/25 07:19:15;;;;;;;9.77;5.63;;;;;;;11.50;61.47;97733.16;5112171;28;20032;-46
2023/02/25 07:21:43;;;;;;;8.65;4.80;;;;;;;11.56;61.50;97732.22;5112231;28;20024;-46
2023/02/25 07:24:11;;;;;;;4.50;2.30;;;;;;;11.68;60.13;97726.97;5112015;28;20026;-46
2023/02/25 07:26:39;;;;;;;6.47;1.65;;;;;;;11.64;59.97;97736.34;5112144;28;20050;-46
2023/02/25 07:29:08;;;;;;;4.50;2.40;;;;;;;11.65;60.75;97737.94;5114319;28;20080;-46
2023/02/25 07:31:35;;;;;;;3.67;1.88;;;;;;;11.82;60.33;97728.31;5116370;28;20035;-46
2023/02/25 07:34:03;;;;;;;10.65;7.32;;;;;;;11.97;59.75;97731.28;5116372;28;20024;-46
2023/02/25 07:36:36;;;;;;;4.50;2.72;;;;;;;12.00;58.97;97732.66;5116271;28;20378;-46
2023/02/25 07:39:05;;;;;;;8.52;2.58;;;;;;;12.07;59.53;97730.66;5116270;28;20043;-46
2023/02/25 07:41:32;;;;;;;25.73;21.35;;;;;;;12.24;59.68;97722.84;5116164;28;20409;-46
2023/02/25 07:44:01;;;;;;;54.35;44.95;;;;;;;12.58;59.01;97721.09;5116127;28;20019;-46
2023/02/25 07:46:30;;;;;;;5.93;4.88;;;;;;;12.83;57.99;97714.66;5097803;28;20020;-46
2023/02/25 07:48:57;;;;;;;4.60;2.70;;;;;;;12.89;57.17;97718.19;5115969;28;20040;-46
2023/02/25 07:51:25;;;;;;;3.17;1.88;;;;;;;13.14;57.22;97717.78;5115950;28;20019;-45
2023/02/25 07:53:54;;;;;;;8.00;2.33;;;;;;;13.48;55.83;97712.50;5116017;28;20030;-47
2023/02/25 07:56:26;;;;;;;7.43;4.45;;;;;;;13.79;54.98;97709.22;5115777;28;20397;-46
2023/02/25 07:58:54;;;;;;;5.07;3.08;;;;;;;13.92;55.61;97701.97;5115965;28;20055;-46
2023/02/25 08:01:31;;;;;;;22.60;20.40;;;;;;;13.94;54.80;97713.91;5115750;28;20015;-46
2023/02/25 08:04:05;;;;;;;16.60;12.93;;;;;;;13.82;54.05;97707.91;5115422;28;20048;-46
2023/02/25 08:06:37;;;;;;;12.57;4.97;;;;;;;14.14;53.66;97705.38;5115683;28;20078;-46
2023/02/25 08:09:11;;;;;;;332.83;296.38;;;;;;;15.08;51.92;97700.72;5115719;28;20058;-46
2023/02/25 08:11:39;;;;;;;47.88;41.90;;;;;;;15.59;49.82;97710.81;5115494;28;20033;-47
2023/02/25 08:14:08;;;;;;;14.85;9.57;;;;;;;16.13;49.17;97707.09;5115659;28;20110;-47
2023/02/25 08:16:36;;;;;;;7.72;3.90;;;;;;;17.00;47.86;97693.97;5115522;28;20435;-47
2023/02/25 08:19:05;;;;;;;9.52;4.95;;;;;;;17.58;46.58;97699.69;5115431;28;20047;-47
2023/02/25 08:21:36;;;;;;;6.95;3.08;;;;;;;18.20;44.55;97696.84;5115425;28;20039;-47
2023/02/25 08:24:03;;;;;;;2.75;2.10;;;;;;;18.32;42.32;97699.16;5115355;28;20023;-44
2023/02/25 08:26:30;;;;;;;3.53;2.03;;;;;;;18.79;41.18;97703.13;5115371;28;20050;-44
2023/02/25 08:28:58;;;;;;;3.63;2.45;;;;;;;19.40;41.25;97695.66;5115304;28;20051;-45
2023/02/25 08:31:26;;;;;;;5.50;3.17;;;;;;;19.79;41.98;97694.75;5115231;28;20023;-45
2023/02/25 08:33:53;;;;;;;4.30;2.25;;;;;;;20.21;39.35;97690.47;5113936;28;20031;-45
2023/02/25 08:36:25;;;;;;;5.78;2.40;;;;;;;20.50;39.02;97685.81;5115375;28;20031;-45
2023/02/25 08:38:54;;;;;;;6.00;2.95;;;;;;;20.39;38.28;97688.91;5096899;28;20487;-45
2023/02/25 08:41:21;;;;;;;8.57;2.72;;;;;;;19.69;39.11;97684.97;5114573;28;20036;-45
2023/02/25 08:43:50;;;;;;;6.47;3.13;;;;;;;19.34;39.72;97686.97;5113688;28;20059;-44
2023/02/25 08:46:18;;;;;;;5.30;2.72;;;;;;;19.82;38.61;97678.19;5114910;28;20019;-45
2023/02/25 08:48:49;;;;;;;9.15;6.82;;;;;;;19.68;39.12;97672.72;5114934;28;20114;-44
2023/02/25 08:51:16;;;;;;;14.73;6.97;;;;;;;19.22;38.78;97679.34;5114929;28;20024;-44
2023/02/25 08:53:44;;;;;;;8.20;4.20;;;;;;;19.23;39.26;97678.25;5113514;28;20036;-44
2023/02/25 08:56:13;;;;;;;10.43;4.32;;;;;;;18.74;40.21;97672.03;5114791;28;20102;-44
2023/02/25 08:58:54;;;;;;;7.30;4.07;;;;;;;18.60;41.05;97675.59;5114715;28;20023;-45
2023/02/25 09:01:22;;;;;;;9.07;4.70;;;;;;;18.04;40.05;97672.22;5114692;28;20019;-44
2023/02/25 09:03:58;;;;;;;18.40;5.43;;;;;;;17.44;41.60;97674.03;5114328;28;20123;-44
2023/02/25 09:06:27;;;;;;;10.20;4.78;;;;;;;17.27;42.62;97680.44;5114621;28;20535;-44
2023/02/25 09:08:55;;;;;;;10.52;5.30;;;;;;;17.55;43.22;97675.59;5114377;28;20050;-44
2023/02/25 09:11:23;;;;;;;9.98;5.43;;;;;;;18.29;40.87;97673.94;5114444;28;20405;-45
2023/02/25 09:13:51;;;;;;;11.15;4.75;;;;;;;18.16;40.37;97670.03;5114546;28;20023;-44
2023/02/25 09:16:18;;;;;;;12.63;5.72;;;;;;;18.08;40.53;97667.94;5096012;28;20024;-44
2023/02/25 09:18:47;;;;;;;8.73;5.15;;;;;;;19.20;40.22;97662.09;5114392;28;20023;-45
2023/02/25 09:21:16;;;;;;;7.78;5.25;;;;;;;19.89;38.56;97649.34;5114220;28;20027;-44
2023/02/25 09:23:55;;;;;;;10.75;5.15;;;;;;;19.75;39.80;97646.59;5114275;28;20020;-46
2023/02/25 09:26:22;;;;;;;8.90;4.65;;;;;;;20.87;36.29;97641.50;5114295;28;20027;-44
2023/02/25 09:29:02;;;;;;;9.45;4.85;;;;;;;21.30;36.20;97646.59;5112881;28;20053;-45
2023/02/25 09:31:29;;;;;;;7.88;5.10;;;;;;;22.05;35.18;97644.56;5114176;28;20065;-46
2023/02/25 09:33:56;;;;;;;8.73;5.72;;;;;;;21.85;34.38;97639.66;5095661;28;20408;-45
2023/02/25 09:36:24;;;;;;;7.65;4.70;;;;;;;22.34;33.74;97640.78;5114068;28;20023;-45
2023/02/25 09:38:51;;;;;;;11.93;4.80;;;;;;;22.28;33.37;97637.41;5113998;28;20102;-45
2023/02/25 09:41:53;;;;;;;14.05;5.10;;;;;;;22.38;33.49;97633.72;5113876;28;20024;-46
2023/02/25 09:45:14;;;;;;;9.88;5.72;;;;;;;21.59;34.04;97636.75;5113837;28;20027;-46
2023/02/25 09:48:33;;;;;;;11.65;4.82;;;;;;;22.80;32.91;97628.97;5113834;28;20076;-45
2023/02/25 09:51:35;;;;;;;9.55;4.82;;;;;;;23.95;30.64;97617.59;5113627;28;20066;-45
2023/02/25 09:54:54;;;;;;;8.27;5.53;;;;;;;23.88;29.56;97621.50;5113397;28;20035;-46
2023/02/25 09:57:22;;;;;;;11.60;6.03;;;;;;;23.00;30.39;97626.84;5095042;28;20026;-46
2023/02/25 09:59:52;;;;;;;11.80;6.28;;;;;;;22.60;29.88;97622.25;5113533;28;20038;-44
2023/02/25 10:02:49;;;;;;;14.40;5.93;;;;;;;22.33;30.11;97631.16;5113477;28;20104;-44
2023/02/25 10:05:43;;;;;;;13.77;5.82;;;;;;;21.14;30.91;97614.06;5089850;28;20531;-45
2023/02/25 10:08:38;;;;;;;13.73;6.45;;;;;;;20.38;32.04;97628.69;5094985;28;20030;-45
2023/02/25 10:11:39;;;;;;;9.95;6.32;;;;;;;19.42;33.88;97626.97;5113269;28;20106;-44
2023/02/25 10:14:30;;;;;;;17.42;6.28;;;;;;;18.75;35.11;97635.59;5096643;28;20031;-44
2023/02/25 10:17:01;;;;;;;11.45;5.53;;;;;;;18.26;35.98;97629.34;5111733;28;20023;-45
2023/02/25 10:20:17;;;;;;;13.40;6.25;;;;;;;17.94;37.43;97630.59;5113112;28;20022;-44
2023/02/25 10:23:38;;;;;;;9.65;6.38;;;;;;;17.99;37.79;97632.44;5112984;28;20039;-45
2023/02/25 10:26:37;;;;;;;12.75;6.65;;;;;;;18.52;37.48;97629.16;5113041;28;20070;-45
2023/02/25 10:29:57;;;;;;;11.82;7.15;;;;;;;18.45;36.92;97628.66;5090389;28;20288;-44
2023/02/25 10:32:47;;;;;;;15.35;7.00;;;;;;;17.81;37.75;97638.31;5104217;28;20034;-45
2023/02/25 10:35:22;;;;;;;16.27;6.63;;;;;;;17.08;39.15;97634.34;5112749;28;20026;-44
2023/02/25 10:38:11;;;;;;;15.23;7.15;;;;;;;16.76;39.92;97638.88;5112893;28;20031;-44
2023/02/25 10:40:44;;;;;;;12.00;7.57;;;;;;;17.09;39.42;97638.59;5112642;28;20028;-44
2023/02/25 10:43:37;;;;;;;9.82;6.43;;;;;;;17.78;39.03;97648.41;5112758;28;20020;-44
2023/02/25 10:46:55;;;;;;;13.73;7.43;;;;;;;18.85;37.53;97638.19;5094004;28;20034;-46
2023/02/25 10:49:37;;;;;;;10.57;8.05;;;;;;;19.68;35.77;97635.47;5100851;28;20028;-45
2023/02/25 10:52:55;;;;;;;12.05;7.85;;;;;;;19.23;36.43;97638.38;5112625;28;20029;-44
2023/02/25 10:55:58;;;;;;;14.60;7.40;;;;;;;19.18;36.37;97624.34;5112436;28;20459;-45
2023/02/25 10:58:45;;;;;;;19.98;8.38;;;;;;;18.98;36.71;97623.47;5094184;28;20050;-44
2023/02/25 11:01:42;;;;;;;16.52;7.53;;;;;;;18.49;36.61;97622.53;5112362;28;20027;-45
2023/02/25 11:04:20;;;;;;;13.55;6.95;;;;;;;17.93;37.44;97626.38;5107109;28;20127;-45
2023/02/25 11:06:47;;;;;;;11.48;6.82;;;;;;;17.55;38.23;97633.16;5086400;28;20509;-44
2023/02/25 11:09:20;;;;;;;14.73;7.50;;;;;;;17.36;38.64;97627.63;5092067;28;20069;-44
2023/02/25 11:11:57;;;;;;;9.00;7.13;;;;;;;17.40;38.89;97625.22;5091976;28;20109;-44
2023/02/25 11:14:31;;;;;;;10.23;6.90;;;;;;;17.12;38.81;97622.13;5091912;28;20028;-44
2023/02/25 11:17:06;;;;;;;14.40;6.85;;;;;;;16.75;39.06;97621.34;5087975;28;20035;-44
2023/02/25 11:19:40;;;;;;;10.05;6.07;;;;;;;16.52;39.20;97627.19;5084619;28;20040;-44
2023/02/25 11:22:17;;;;;;;9.95;6.78;;;;;;;16.94;40.14;97620.84;5073670;28;20039;-44
2023/02/25 11:25:05;;;;;;;10.43;6.88;;;;;;;17.63;38.22;97614.00;5091847;28;20444;-44
2023/02/25 11:27:41;;;;;;;9.77;6.03;;;;;;;17.79;38.14;97604.13;5091839;28;20055;-44
2023/02/25 11:30:24;;;;;;;15.98;6.10;;;;;;;18.12;37.27;97594.63;5091799;28;20076;-44
2023/02/25 11:32:54;;;;;;;7.82;5.55;;;;;;;18.35;36.60;97597.66;5091759;28;20036;-44
2023/02/25 11:35:29;;;;;;;11.05;8.43;;;;;;;18.32;35.85;97592.91;5074413;28;20020;-44
2023/02/25 11:37:57;;;;;;;11.70;6.88;;;;;;;18.44;35.92;97596.00;5091791;28;20397;-45
2023/02/25 11:40:32;;;;;;;9.15;6.07;;;;;;;18.23;36.18;97581.28;5091595;28;20028;-44
2023/02/25 11:43:03;;;;;;;;;;;;;;;18.17;36.82;97586.66;5092103;28;20059;-44
2023/02/25 11:45:49;;;;;;;13.60;6.25;;;;;;;17.75;36.95;97589.81;5091478;28;19912;-43
2023/02/25 11:48:26;;;;;;;9.40;6.38;;;;;;;17.13;37.43;97584.75;5090222;28;20035;-44
2023/02/25 11:51:48;;;;;;;10.90;6.55;;;;;;;16.45;39.22;97590.38;5107318;28;20036;-44
2023/02/25 11:54:56;;;;;;;11.18;7.15;;;;;;;16.01;40.81;97569.72;5079995;28;20086;-44
2023/02/25 11:57:38;;;;;;;13.38;7.47;;;;;;;15.64;41.39;97581.25;5091424;28;20028;-44
2023/02/25 12:00:18;;;;;;;13.50;8.15;;;;;;;15.36;42.08;97575.31;5091428;28;20035;-47
2023/02/25 12:02:47;;;;;;;12.20;7.38;;;;;;;15.17;42.89;97569.72;5088745;28;20062;-46
2023/02/25 12:05:35;;;;;;;15.13;7.80;;;;;;;15.08;43.29;97567.81;5090932;28;20501;-47
2023/02/25 12:08:23;;;;;;;18.58;8.38;;;;;;;15.38;43.75;97548.63;5071378;28;20031;-46
2023/02/25 12:11:10;;;;;;;18.15;9.07;;;;;;;15.97;42.94;97558.84;5091489;28;20024;-47
2023/02/25 12:14:16;;;;;;;20.17;8.25;;;;;;;16.59;41.03;97542.97;5091462;28;20103;-46
2023/02/25 12:17:30;;;;;;;19.80;8.40;;;;;;;16.54;40.47;97546.44;5094332;28;20051;-47